createdAt,value
2023-05-13T00:00:23.031Z,98.90
2023-05-13T00:02:51.049Z,98.90
2023-05-13T00:05:18.922Z,98.90
2023-05-13T00:07:46.632Z,98.90
2023-05-13T00:10:16.474Z,98.90
2023-05-13T00:12:44.281Z,98.90
2023-05-13T00:15:12.470Z,98.90
2023-05-13T00:17:40.259Z,98.90
2023-05-13T00:20:09.300Z,98.90
2023-05-13T00:22:37.050Z,98.90
2023-05-13T00:25:05.255Z,98.90
2023-05-13T00:27:34.327Z,98.90
2023-05-13T00:30:02.151Z,98.90
2023-05-13T00:32:29.946Z,98.90
2023-05-13T00:34:57.738Z,99.00
2023-05-13T00:37:25.444Z,99.00
2023-05-13T00:39:53.192Z,99.00
2023-05-13T00:42:20.902Z,98.90
2023-05-13T00:44:49.947Z,99.00
2023-05-13T00:47:18.090Z,99.00
2023-05-13T00:49:45.830Z,99.00
2023-05-13T00:52:13.739Z,99.00
2023-05-13T00:54:41.526Z,98.90
2023-05-13T00:57:09.254Z,99.00
2023-05-13T00:59:36.986Z,99.00
2023-05-13T01:02:13.786Z,99.00
2023-05-13T01:04:47.171Z,99.00
2023-05-13T01:07:25.400Z,99.00
2023-05-13T01:10:02.392Z,99.00
2023-05-13T01:12:34.202Z,99.00
2023-05-13T01:15:07.214Z,99.10
2023-05-13T01:17:42.048Z,99.10
2023-05-13T01:20:10.736Z,99.10
2023-05-13T01:22:39.791Z,99.10
2023-05-13T01:25:08.148Z,99.10
2023-05-13T01:27:35.973Z,99.10
2023-05-13T01:30:04.115Z,99.20
2023-05-13T01:32:32.007Z,99.20
2023-05-13T01:35:00.450Z,99.20
2023-05-13T01:37:29.085Z,99.20
2023-05-13T01:39:58.374Z,99.30
2023-05-13T01:42:27.783Z,99.30
2023-05-13T01:44:55.505Z,99.30
2023-05-13T01:47:23.225Z,99.30
2023-05-13T01:49:50.973Z,99.30
2023-05-13T01:52:18.681Z,99.30
2023-05-13T01:54:46.404Z,99.20
2023-05-13T01:57:15.475Z,99.20
2023-05-13T01:59:43.177Z,99.30
2023-05-13T02:02:10.972Z,99.30
2023-05-13T02:04:38.775Z,99.30
2023-05-13T02:07:06.476Z,99.30
2023-05-13T02:09:34.563Z,99.40
2023-05-13T02:12:02.468Z,99.30
2023-05-13T02:14:31.515Z,99.40
2023-05-13T02:16:59.288Z,99.30
2023-05-13T02:19:27.477Z,99.40
2023-05-13T02:21:55.195Z,99.40
2023-05-13T02:24:22.982Z,99.40
2023-05-13T02:26:50.707Z,99.40
2023-05-13T02:29:18.413Z,99.50
2023-05-13T02:31:47.562Z,99.40
2023-05-13T02:34:15.304Z,99.40
2023-05-13T02:36:43.013Z,99.40
2023-05-13T02:39:10.737Z,99.50
2023-05-13T02:41:38.442Z,99.50
2023-05-13T02:44:06.210Z,99.50
2023-05-13T02:46:33.974Z,99.40
2023-05-13T02:49:03.095Z,99.40
2023-05-13T02:51:30.831Z,99.40
2023-05-13T02:53:58.563Z,99.50
2023-05-13T02:56:26.280Z,99.50
2023-05-13T02:58:53.989Z,99.50
2023-05-13T03:01:21.763Z,99.50
2023-05-13T03:03:49.539Z,99.40
2023-05-13T03:06:18.663Z,99.50
2023-05-13T03:08:46.353Z,99.50
2023-05-13T03:11:14.053Z,99.40
2023-05-13T03:13:41.745Z,99.50
2023-05-13T03:16:10.060Z,99.50
2023-05-13T03:18:37.856Z,99.60
2023-05-13T03:21:05.766Z,99.60
2023-05-13T03:23:34.898Z,99.60
2023-05-13T03:26:02.762Z,99.70
2023-05-13T03:28:30.726Z,99.60
2023-05-13T03:30:58.465Z,99.60
2023-05-13T03:33:26.334Z,99.90
2023-05-13T03:35:54.103Z,99.60
2023-05-13T03:38:21.810Z,99.60
2023-05-13T03:40:50.903Z,99.60
2023-05-13T03:43:18.753Z,99.80
2023-05-13T03:45:48.430Z,99.90
2023-05-13T03:48:16.449Z,99.70
2023-05-13T03:50:44.241Z,99.70
2023-05-13T03:53:12.051Z,99.70
2023-05-13T03:55:39.792Z,99.60
2023-05-13T03:58:16.220Z,99.60
2023-05-13T04:00:46.546Z,99.60
2023-05-13T04:03:16.086Z,99.60
2023-05-13T04:05:44.099Z,99.60
2023-05-13T04:08:12.185Z,99.90
2023-05-13T04:10:40.126Z,99.60
2023-05-13T04:13:08.206Z,99.60
2023-05-13T04:15:37.260Z,99.60
2023-05-13T04:18:05.118Z,99.60
2023-05-13T04:20:32.896Z,99.60
2023-05-13T04:23:01.566Z,99.70
2023-05-13T04:25:29.256Z,99.70
2023-05-13T04:27:57.023Z,99.70
2023-05-13T04:30:24.750Z,99.70
2023-05-13T04:32:53.871Z,99.70
2023-05-13T04:35:21.799Z,99.70
2023-05-13T04:37:50.366Z,99.70
2023-05-13T04:40:18.357Z,99.80
2023-05-13T04:42:46.073Z,99.80
2023-05-13T04:45:13.758Z,99.80
2023-05-13T04:47:41.498Z,99.80
2023-05-13T04:50:11.524Z,99.80
2023-05-13T04:52:42.686Z,99.80
2023-05-13T04:55:10.723Z,99.80
2023-05-13T04:57:38.706Z,99.80
2023-05-13T05:00:08.453Z,99.90
2023-05-13T05:02:36.229Z,99.90
2023-05-13T05:05:05.097Z,99.90
2023-05-13T05:07:34.157Z,99.90
2023-05-13T05:10:01.904Z,99.90
2023-05-13T05:12:31.082Z,99.90
2023-05-13T05:14:58.853Z,99.90
2023-05-13T05:17:27.773Z,99.90
2023-05-13T05:19:55.749Z,99.90
2023-05-13T05:22:23.473Z,99.70
2023-05-13T05:24:52.539Z,99.80
2023-05-13T05:27:20.313Z,99.80
2023-05-13T05:29:48.035Z,99.90
2023-05-13T05:32:15.758Z,99.90
2023-05-13T05:34:43.651Z,99.90
2023-05-13T05:37:11.387Z,99.80
2023-05-13T05:39:41.016Z,99.60
2023-05-13T05:42:10.201Z,99.50
2023-05-13T05:44:37.886Z,99.40
2023-05-13T05:47:05.924Z,99.30
2023-05-13T05:49:33.670Z,99.30
2023-05-13T05:52:01.393Z,99.30
2023-05-13T05:54:29.157Z,99.20
2023-05-13T05:56:56.889Z,99.10
2023-05-13T05:59:26.006Z,99.00
2023-05-13T06:01:53.816Z,99.10
2023-05-13T06:04:21.632Z,99.10
2023-05-13T06:06:49.381Z,99.00
2023-05-13T06:09:17.157Z,99.10
2023-05-13T06:11:44.994Z,99.00
2023-05-13T06:14:12.706Z,99.00
2023-05-13T06:16:41.769Z,99.10
2023-05-13T06:19:09.588Z,99.20
2023-05-13T06:21:37.386Z,99.20
2023-05-13T06:24:05.387Z,99.10
2023-05-13T06:26:33.372Z,99.10
2023-05-13T06:29:01.105Z,99.10
2023-05-13T06:31:28.959Z,99.00
2023-05-13T06:33:58.087Z,99.10
2023-05-13T06:36:26.026Z,99.10
2023-05-13T06:38:54.553Z,99.10
2023-05-13T06:41:22.560Z,99.10
2023-05-13T06:43:50.286Z,99.10
2023-05-13T06:46:18.078Z,99.00
2023-05-13T06:48:45.875Z,99.00
2023-05-13T06:51:14.942Z,99.00
2023-05-13T06:53:42.731Z,99.00
2023-05-13T06:56:10.583Z,99.10
2023-05-13T06:58:38.378Z,99.10
2023-05-13T07:01:07.091Z,99.20
2023-05-13T07:03:34.909Z,99.20
2023-05-13T07:06:02.795Z,99.20
2023-05-13T07:08:31.874Z,99.20
2023-05-13T07:10:59.756Z,99.30
2023-05-13T07:13:27.861Z,99.30
2023-05-13T07:15:55.589Z,99.20
2023-05-13T07:18:23.747Z,99.20
2023-05-13T07:20:52.407Z,99.10
2023-05-13T07:23:20.156Z,99.10
2023-05-13T07:25:49.851Z,99.20
2023-05-13T07:28:17.587Z,99.10
2023-05-13T07:30:45.532Z,99.10
2023-05-13T07:33:13.344Z,99.10
2023-05-13T07:35:41.222Z,99.10
2023-05-13T07:38:10.901Z,99.10
2023-05-13T07:40:38.826Z,99.00
2023-05-13T07:43:08.195Z,99.10
2023-05-13T07:45:36.689Z,99.10
2023-05-13T07:48:05.449Z,99.10
2023-05-13T07:50:33.285Z,99.00
2023-05-13T07:53:01.074Z,99.00
2023-05-13T07:55:28.806Z,98.90
2023-05-13T07:57:56.525Z,98.90
2023-05-13T08:00:25.585Z,98.90
2023-05-13T08:02:53.414Z,98.80
2023-05-13T08:05:21.413Z,98.70
2023-05-13T08:07:49.272Z,98.50
2023-05-13T08:10:17.120Z,98.50
2023-05-13T08:12:50.799Z,98.50
2023-05-13T08:15:18.975Z,98.60
2023-05-13T08:17:48.082Z,98.70
2023-05-13T08:20:16.193Z,98.50
2023-05-13T08:22:43.916Z,98.40
2023-05-13T08:25:12.134Z,98.40
2023-05-13T08:27:39.852Z,98.10
2023-05-13T08:30:08.872Z,98.00
2023-05-13T08:32:36.759Z,97.90
2023-05-13T08:35:06.513Z,97.90
2023-05-13T08:37:34.350Z,97.80
2023-05-13T08:40:03.086Z,97.50
2023-05-13T08:42:33.322Z,97.50
2023-05-13T08:45:05.493Z,97.30
2023-05-13T08:47:40.604Z,97.30
2023-05-13T08:50:11.142Z,97.20
2023-05-13T08:52:39.077Z,96.80
2023-05-13T08:55:08.664Z,96.40
2023-05-13T08:57:37.155Z,96.40
2023-05-13T09:00:05.762Z,96.30
2023-05-13T09:02:33.602Z,96.20
2023-05-13T09:05:05.636Z,95.70
2023-05-13T09:07:35.116Z,95.60
2023-05-13T09:10:02.847Z,95.50
2023-05-13T09:12:47.516Z,95.30
2023-05-13T09:15:16.750Z,95.30
2023-05-13T09:17:45.750Z,95.20
2023-05-13T09:20:15.353Z,95.00
2023-05-13T09:22:47.021Z,94.80
2023-05-13T09:25:15.825Z,94.50
2023-05-13T09:27:45.107Z,94.60
2023-05-13T09:30:13.318Z,94.40
2023-05-13T09:32:42.194Z,93.90
2023-05-13T09:35:16.647Z,94.00
2023-05-13T09:37:50.418Z,93.80
2023-05-13T09:40:18.904Z,93.00
2023-05-13T09:42:47.448Z,93.80
2023-05-13T09:45:16.793Z,94.00
2023-05-13T09:47:45.111Z,93.70
2023-05-13T09:50:13.367Z,93.50
2023-05-13T09:52:41.136Z,93.00
2023-05-13T09:55:11.350Z,93.10
2023-05-13T09:57:40.763Z,93.10
2023-05-13T10:00:17.978Z,93.40
2023-05-13T10:02:53.324Z,92.90
2023-05-13T10:05:21.524Z,92.60
2023-05-13T10:07:49.293Z,92.00
2023-05-13T10:10:18.453Z,92.20
2023-05-13T10:12:46.845Z,92.30
2023-05-13T10:15:15.109Z,92.50
2023-05-13T10:17:44.730Z,92.20
2023-05-13T10:20:13.543Z,92.20
2023-05-13T10:22:41.444Z,92.10
2023-05-13T10:25:10.232Z,92.30
2023-05-13T10:27:40.723Z,92.60
2023-05-13T10:30:10.362Z,92.70
2023-05-13T10:32:39.731Z,92.80
2023-05-13T10:35:12.911Z,93.00
2023-05-13T10:38:02.206Z,93.20
2023-05-13T10:40:57.209Z,93.70
2023-05-13T10:43:29.790Z,93.60
2023-05-13T10:45:59.340Z,93.80
2023-05-13T10:48:27.343Z,93.90
2023-05-13T10:50:56.756Z,94.00
2023-05-13T10:53:26.308Z,93.90
2023-05-13T10:55:56.166Z,94.00
2023-05-13T10:58:31.554Z,94.20
2023-05-13T11:01:15.485Z,94.10
2023-05-13T11:03:51.044Z,94.00
2023-05-13T11:06:20.578Z,93.90
2023-05-13T11:08:50.011Z,93.70
2023-05-13T11:11:30.881Z,93.70
2023-05-13T11:14:09.472Z,93.50
2023-05-13T11:16:38.072Z,93.60
2023-05-13T11:19:17.236Z,93.40
2023-05-13T11:21:50.545Z,92.80
2023-05-13T11:24:19.327Z,93.40
2023-05-13T11:26:51.025Z,93.40
2023-05-13T11:29:30.562Z,93.20
2023-05-13T11:32:00.867Z,93.10
2023-05-13T11:34:29.087Z,93.20
2023-05-13T11:36:59.199Z,93.20
2023-05-13T11:39:27.503Z,92.90
2023-05-13T11:41:57.223Z,93.10
2023-05-13T11:44:26.245Z,93.10
2023-05-13T11:46:57.239Z,93.30
2023-05-13T11:49:41.271Z,93.30
2023-05-13T11:52:11.308Z,93.30
2023-05-13T11:54:43.865Z,93.30
2023-05-13T11:57:21.883Z,93.20
2023-05-13T11:59:54.602Z,93.00
2023-05-13T12:02:24.827Z,92.40
2023-05-13T12:04:53.313Z,92.80
2023-05-13T12:07:22.656Z,93.00
2023-05-13T12:09:50.677Z,92.90
2023-05-13T12:12:19.574Z,93.00
2023-05-13T12:14:50.079Z,93.20
2023-05-13T12:17:18.344Z,93.30
2023-05-13T12:20:09.688Z,93.40
2023-05-13T12:22:38.373Z,93.40
2023-05-13T12:25:34.307Z,93.30
2023-05-13T12:28:08.319Z,93.20
2023-05-13T12:30:37.288Z,93.30
2023-05-13T12:33:05.988Z,93.40
2023-05-13T12:35:35.088Z,93.50
2023-05-13T12:38:04.238Z,93.50
2023-05-13T12:40:32.700Z,93.40
2023-05-13T12:43:01.336Z,93.20
2023-05-13T12:45:30.415Z,93.20
2023-05-13T12:47:59.405Z,93.30
2023-05-13T12:50:27.786Z,92.90
2023-05-13T12:52:57.631Z,92.80
2023-05-13T12:55:27.152Z,92.90
2023-05-13T12:58:00.227Z,92.70
2023-05-13T13:00:29.471Z,92.30
2023-05-13T13:02:58.095Z,92.40
2023-05-13T13:05:26.448Z,92.20
2023-05-13T13:07:54.176Z,92.10
2023-05-13T13:10:23.517Z,92.20
2023-05-13T13:12:51.249Z,92.70
2023-05-13T13:15:19.030Z,92.40
2023-05-13T13:17:46.797Z,92.30
2023-05-13T13:20:14.582Z,92.10
2023-05-13T13:22:42.364Z,92.10
2023-05-13T13:25:10.598Z,91.80
2023-05-13T13:27:39.687Z,91.50
2023-05-13T13:30:08.770Z,91.60
2023-05-13T13:32:36.538Z,91.60
2023-05-13T13:35:05.532Z,91.50
2023-05-13T13:37:33.938Z,91.40
2023-05-13T13:40:03.655Z,91.20
2023-05-13T13:42:43.232Z,91.20
2023-05-13T13:45:14.306Z,91.00
2023-05-13T13:47:42.204Z,90.80
2023-05-13T13:50:11.768Z,88.70
2023-05-13T13:52:39.632Z,89.30
2023-05-13T13:55:08.631Z,90.40
2023-05-13T13:57:36.410Z,90.50
2023-05-13T14:00:04.948Z,90.40
2023-05-13T14:02:34.093Z,90.20
2023-05-13T14:05:01.933Z,89.20
2023-05-13T14:07:29.717Z,89.80
2023-05-13T14:09:58.961Z,90.10
2023-05-13T14:12:28.742Z,90.00
2023-05-13T14:14:56.493Z,90.10
2023-05-13T14:17:24.340Z,90.10
2023-05-13T14:19:55.154Z,90.00
2023-05-13T14:22:23.443Z,90.10
2023-05-13T14:24:52.045Z,90.10
2023-05-13T14:27:20.687Z,90.10
2023-05-13T14:29:49.344Z,90.00
2023-05-13T14:32:17.499Z,89.80
2023-05-13T14:34:45.232Z,89.60
2023-05-13T14:37:14.322Z,89.80
2023-05-13T14:39:42.059Z,89.60
2023-05-13T14:42:11.411Z,89.60
2023-05-13T14:44:41.181Z,89.00
2023-05-13T14:47:09.273Z,88.40
2023-05-13T14:49:37.036Z,87.80
2023-05-13T14:52:05.384Z,87.20
2023-05-13T14:54:37.671Z,85.20
2023-05-13T14:57:06.730Z,84.80
2023-05-13T14:59:34.824Z,86.10
2023-05-13T15:02:03.263Z,87.20
2023-05-13T15:04:31.183Z,87.60
2023-05-13T15:06:59.267Z,88.10
2023-05-13T15:09:27.010Z,88.30
2023-05-13T15:11:56.038Z,88.20
2023-05-13T15:14:25.688Z,88.90
2023-05-13T15:16:53.837Z,88.30
2023-05-13T15:19:21.658Z,87.50
2023-05-13T15:21:49.445Z,87.60
2023-05-13T15:24:17.138Z,87.80
2023-05-13T15:26:44.931Z,87.50
2023-05-13T15:29:13.957Z,87.80
2023-05-13T15:31:41.657Z,87.70
2023-05-13T15:34:09.359Z,87.70
2023-05-13T15:36:37.063Z,87.40
2023-05-13T15:39:04.973Z,86.60
2023-05-13T15:41:32.682Z,87.40
2023-05-13T15:44:00.387Z,87.20
2023-05-13T15:46:29.472Z,86.70
2023-05-13T15:48:57.265Z,86.60
2023-05-13T15:51:25.045Z,87.40
2023-05-13T15:53:53.426Z,87.10
2023-05-13T15:56:21.624Z,86.70
2023-05-13T15:58:49.317Z,86.80
2023-05-13T16:01:17.098Z,86.80
2023-05-13T16:03:46.168Z,87.00
2023-05-13T16:06:14.053Z,87.30
2023-05-13T16:08:41.779Z,86.90
2023-05-13T16:11:09.485Z,87.60
2023-05-13T16:13:37.477Z,87.50
2023-05-13T16:16:05.751Z,87.30
2023-05-13T16:18:33.618Z,87.40
2023-05-13T16:21:02.679Z,87.60
2023-05-13T16:23:30.421Z,88.00
2023-05-13T16:25:58.631Z,88.20
2023-05-13T16:28:26.659Z,88.20
2023-05-13T16:30:57.262Z,88.20
2023-05-13T16:33:26.376Z,88.30
2023-05-13T16:35:54.071Z,88.30
2023-05-13T16:38:23.116Z,88.60
2023-05-13T16:40:50.816Z,88.80
2023-05-13T16:43:18.517Z,89.00
2023-05-13T16:45:46.215Z,89.10
2023-05-13T16:48:14.638Z,89.00
2023-05-13T16:50:42.408Z,89.20
2023-05-13T16:53:10.272Z,89.40
2023-05-13T16:55:39.353Z,89.40
2023-05-13T16:58:07.049Z,89.20
2023-05-13T17:00:34.823Z,89.30
2023-05-13T17:03:02.605Z,89.10
2023-05-13T17:05:31.846Z,89.20
2023-05-13T17:07:59.729Z,89.20
2023-05-13T17:10:27.556Z,89.20
2023-05-13T17:12:58.306Z,89.10
2023-05-13T17:15:26.369Z,88.90
2023-05-13T17:17:54.122Z,88.90
2023-05-13T17:20:22.235Z,88.80
2023-05-13T17:22:50.173Z,88.80
2023-05-13T17:25:18.068Z,88.60
2023-05-13T17:27:45.839Z,89.20
2023-05-13T17:30:16.285Z,88.30
2023-05-13T17:32:44.027Z,88.50
2023-05-13T17:35:11.743Z,87.90
2023-05-13T17:37:39.445Z,88.30
2023-05-13T17:40:08.738Z,88.20
2023-05-13T17:42:36.460Z,88.30
2023-05-13T17:45:05.091Z,89.00
2023-05-13T17:47:34.234Z,89.20
2023-05-13T17:50:02.052Z,89.20
2023-05-13T17:52:29.744Z,89.20
2023-05-13T17:54:57.448Z,89.00
2023-05-13T17:57:25.186Z,88.90
2023-05-13T17:59:53.431Z,88.90
2023-05-13T18:02:21.558Z,88.60
2023-05-13T18:04:52.034Z,88.60
2023-05-13T18:07:20.486Z,88.30
2023-05-13T18:09:49.919Z,88.50
2023-05-13T18:12:17.903Z,88.40
2023-05-13T18:14:45.667Z,88.30
2023-05-13T18:17:13.373Z,88.10
2023-05-13T18:19:41.102Z,88.10
2023-05-13T18:22:10.776Z,88.30
2023-05-13T18:24:39.129Z,88.10
2023-05-13T18:27:07.746Z,88.00
2023-05-13T18:29:35.754Z,88.00
2023-05-13T18:32:04.765Z,87.80
2023-05-13T18:34:32.698Z,87.50
2023-05-13T18:37:00.498Z,87.50
2023-05-13T18:39:29.559Z,87.60
2023-05-13T18:41:57.272Z,87.80
2023-05-13T18:44:24.966Z,87.80
2023-05-13T18:46:53.860Z,87.60
2023-05-13T18:49:21.560Z,87.50
2023-05-13T18:51:49.327Z,87.30
2023-05-13T18:54:17.056Z,87.20
2023-05-13T18:56:46.607Z,87.20
2023-05-13T18:59:14.380Z,87.20
2023-05-13T19:01:42.343Z,87.30
2023-05-13T19:04:10.457Z,87.30
2023-05-13T19:06:38.795Z,87.30
2023-05-13T19:09:06.544Z,87.40
2023-05-13T19:11:34.332Z,87.60
2023-05-13T19:14:03.371Z,87.50
2023-05-13T19:16:31.177Z,87.50
2023-05-13T19:18:58.993Z,87.70
2023-05-13T19:21:26.807Z,87.70
2023-05-13T19:23:54.592Z,87.80
2023-05-13T19:26:22.424Z,88.00
2023-05-13T19:28:50.541Z,88.10
2023-05-13T19:31:21.821Z,88.20
2023-05-13T19:33:49.562Z,88.40
2023-05-13T19:36:17.290Z,88.50
2023-05-13T19:38:45.014Z,88.50
2023-05-13T19:41:12.712Z,88.60
2023-05-13T19:43:40.666Z,88.70
2023-05-13T19:46:08.430Z,89.00
2023-05-13T19:48:37.586Z,89.00
2023-05-13T19:51:05.364Z,89.10
2023-05-13T19:53:33.140Z,89.30
2023-05-13T19:56:01.415Z,89.40
2023-05-13T19:58:29.289Z,89.60
2023-05-13T20:00:57.007Z,89.70
2023-05-13T20:03:24.962Z,89.80
2023-05-13T20:05:54.152Z,89.90
2023-05-13T20:08:22.327Z,89.90
2023-05-13T20:10:50.047Z,89.90
2023-05-13T20:13:17.728Z,90.00
2023-05-13T20:15:45.424Z,90.00
2023-05-13T20:18:13.287Z,90.00
2023-05-13T20:20:41.457Z,90.00
2023-05-13T20:23:11.531Z,90.00
2023-05-13T20:25:40.877Z,90.00
2023-05-13T20:28:08.585Z,90.00
2023-05-13T20:30:36.298Z,90.00
2023-05-13T20:33:04.190Z,90.10
2023-05-13T20:35:31.958Z,90.10
2023-05-13T20:38:01.020Z,90.10
2023-05-13T20:40:30.139Z,90.20
2023-05-13T20:43:01.050Z,90.20
2023-05-13T20:45:28.958Z,90.20
2023-05-13T20:47:59.092Z,90.30
2023-05-13T20:50:28.144Z,90.30
2023-05-13T20:52:56.240Z,90.30
2023-05-13T20:55:24.188Z,90.40
2023-05-13T20:57:53.252Z,90.40
2023-05-13T21:00:21.910Z,90.40
2023-05-13T21:02:51.507Z,90.50
2023-05-13T21:05:19.470Z,90.80
2023-05-13T21:07:47.300Z,90.50
2023-05-13T21:10:15.003Z,90.80
2023-05-13T21:12:43.755Z,90.50
2023-05-13T21:15:14.517Z,90.60
2023-05-13T21:17:42.502Z,90.60
2023-05-13T21:20:12.544Z,90.70
2023-05-13T21:22:40.261Z,90.70
2023-05-13T21:25:09.875Z,90.80
2023-05-13T21:27:37.589Z,90.80
2023-05-13T21:30:05.989Z,90.80
2023-05-13T21:32:35.092Z,90.80
2023-05-13T21:35:02.850Z,90.90
2023-05-13T21:37:30.572Z,90.90
2023-05-13T21:39:58.413Z,90.90
2023-05-13T21:42:26.944Z,90.90
2023-05-13T21:44:54.633Z,90.90
2023-05-13T21:47:22.452Z,91.00
2023-05-13T21:49:51.542Z,91.00
2023-05-13T21:52:19.245Z,90.90
2023-05-13T21:54:46.932Z,90.90
2023-05-13T21:57:14.680Z,91.00
2023-05-13T21:59:42.489Z,91.10
2023-05-13T22:02:10.357Z,91.10
2023-05-13T22:04:38.231Z,91.10
2023-05-13T22:07:07.365Z,91.10
2023-05-13T22:09:35.294Z,91.10
2023-05-13T22:12:03.275Z,91.10
2023-05-13T22:14:30.971Z,91.10
2023-05-13T22:17:08.939Z,91.20
2023-05-13T22:19:37.759Z,91.20
2023-05-13T22:22:07.125Z,91.30
2023-05-13T22:24:34.933Z,91.20
2023-05-13T22:27:02.751Z,91.30
2023-05-13T22:29:31.160Z,91.30
2023-05-13T22:31:58.955Z,91.30
2023-05-13T22:37:24.051Z,91.30
2023-05-13T22:39:51.798Z,91.30
2023-05-13T22:42:19.487Z,91.40
2023-05-13T22:44:47.178Z,91.40
2023-05-13T22:47:14.977Z,91.80
2023-05-13T22:49:42.685Z,91.40
2023-05-13T22:52:10.422Z,91.40
2023-05-13T22:54:39.455Z,91.40
2023-05-13T22:57:07.496Z,91.50
2023-05-13T22:59:35.720Z,91.60
2023-05-13T23:02:03.740Z,91.60
2023-05-13T23:04:31.766Z,91.60
2023-05-13T23:06:59.649Z,91.60
2023-05-13T23:09:27.361Z,91.50
2023-05-13T23:11:56.375Z,91.50
2023-05-13T23:14:25.146Z,91.50
2023-05-13T23:16:52.834Z,91.60
2023-05-13T23:19:20.532Z,91.60
2023-05-13T23:21:48.233Z,91.60
2023-05-13T23:24:16.025Z,91.60
2023-05-13T23:26:45.783Z,91.60
2023-05-13T23:29:16.596Z,91.60
2023-05-13T23:31:44.395Z,91.70
2023-05-13T23:34:12.149Z,91.70
2023-05-13T23:36:39.861Z,91.80
2023-05-13T23:39:07.576Z,92.10
2023-05-13T23:41:35.772Z,91.80
2023-05-13T23:44:03.583Z,91.80
2023-05-13T23:46:32.840Z,91.80
2023-05-13T23:49:00.689Z,91.80
2023-05-13T23:51:28.535Z,91.80
2023-05-13T23:53:56.272Z,91.80
2023-05-13T23:56:23.973Z,91.80
2023-05-13T23:58:51.675Z,91.80
